createdAt,value
2022-11-29T00:01:23.870Z,4.32
2022-11-29T00:03:52.177Z,4.14
2022-11-29T00:06:21.692Z,3.94
2022-11-29T00:08:49.869Z,3.87
2022-11-29T00:11:19.215Z,3.75
2022-11-29T00:13:47.133Z,3.78
2022-11-29T00:16:16.131Z,3.58
2022-11-29T00:18:44.014Z,3.57
2022-11-29T00:21:11.131Z,3.45
2022-11-29T00:23:39.298Z,3.44
2022-11-29T00:26:08.651Z,3.46
2022-11-29T00:28:37.445Z,3.46
2022-11-29T00:31:16.276Z,3.45
2022-11-29T00:33:44.133Z,3.40
2022-11-29T00:36:11.985Z,3.44
2022-11-29T00:38:41.483Z,3.49
2022-11-29T00:41:09.570Z,3.47
2022-11-29T00:43:38.579Z,3.44
2022-11-29T00:46:06.481Z,3.40
2022-11-29T00:48:36.734Z,3.44
2022-11-29T00:51:05.725Z,3.52
2022-11-29T00:53:35.061Z,3.54
2022-11-29T00:56:03.053Z,3.61
2022-11-29T00:58:31.376Z,3.61
2022-11-29T01:00:58.941Z,3.53
2022-11-29T01:03:26.806Z,3.58
2022-11-29T01:06:00.977Z,3.54
2022-11-29T01:08:29.211Z,3.54
2022-11-29T01:11:04.847Z,3.46
2022-11-29T01:13:32.952Z,3.43
2022-11-29T01:16:00.337Z,3.33
2022-11-29T01:18:28.725Z,3.46
2022-11-29T01:20:59.137Z,3.45
2022-11-29T01:23:27.281Z,3.45
2022-11-29T01:26:04.257Z,3.36
2022-11-29T01:28:33.031Z,3.46
2022-11-29T01:31:04.923Z,3.45
2022-11-29T01:33:33.170Z,3.39
2022-11-29T01:36:02.845Z,3.49
2022-11-29T01:38:31.334Z,3.55
2022-11-29T01:41:01.796Z,3.52
2022-11-29T01:43:30.371Z,3.41
2022-11-29T01:45:58.059Z,3.50
2022-11-29T01:48:30.732Z,3.52
2022-11-29T01:51:01.574Z,3.46
2022-11-29T01:53:29.577Z,3.36
2022-11-29T01:56:03.712Z,3.34
2022-11-29T01:58:32.098Z,3.39
2022-11-29T02:01:01.175Z,3.41
2022-11-29T02:03:29.210Z,3.42
2022-11-29T02:05:56.825Z,3.47
2022-11-29T02:08:31.825Z,3.56
2022-11-29T02:11:30.939Z,3.62
2022-11-29T02:14:10.855Z,3.58
2022-11-29T02:16:47.723Z,3.61
2022-11-29T02:19:35.059Z,3.64
2022-11-29T02:22:08.192Z,3.58
2022-11-29T02:25:23.249Z,3.57
2022-11-29T02:28:41.058Z,3.67
2022-11-29T02:32:00.116Z,3.62
2022-11-29T02:34:52.181Z,3.67
2022-11-29T02:37:41.953Z,3.63
2022-11-29T02:40:33.642Z,3.71
2022-11-29T02:43:43.267Z,3.75
2022-11-29T02:46:27.152Z,3.72
2022-11-29T02:49:03.781Z,3.76
2022-11-29T02:51:42.073Z,3.71
2022-11-29T02:54:16.377Z,3.67
2022-11-29T02:56:51.346Z,3.71
2022-11-29T02:59:34.093Z,3.80
2022-11-29T03:02:12.961Z,3.69
2022-11-29T03:04:47.688Z,3.85
2022-11-29T03:07:27.447Z,3.81
2022-11-29T03:10:00.955Z,3.71
2022-11-29T03:12:37.831Z,3.70
2022-11-29T03:15:19.502Z,3.85
2022-11-29T03:17:57.673Z,3.81
2022-11-29T03:20:37.718Z,3.66
2022-11-29T03:23:23.192Z,3.84
2022-11-29T03:25:57.704Z,3.74
2022-11-29T03:28:31.526Z,3.77
2022-11-29T03:31:06.964Z,3.78
2022-11-29T03:33:43.201Z,3.73
2022-11-29T03:36:18.947Z,3.76
2022-11-29T03:38:48.782Z,3.81
2022-11-29T03:41:23.117Z,3.87
2022-11-29T03:43:57.444Z,3.83
2022-11-29T03:46:32.079Z,3.89
2022-11-29T03:49:03.836Z,3.83
2022-11-29T03:51:44.554Z,3.78
2022-11-29T03:54:16.684Z,3.80
2022-11-29T03:56:45.201Z,3.64
2022-11-29T03:59:26.322Z,3.62
2022-11-29T04:02:11.034Z,3.63
2022-11-29T04:05:22.238Z,3.52
2022-11-29T04:08:13.376Z,3.39
2022-11-29T04:11:23.087Z,3.28
2022-11-29T04:14:26.674Z,3.20
2022-11-29T04:17:35.550Z,3.30
2022-11-29T04:20:41.104Z,3.22
2022-11-29T04:23:38.800Z,3.33
2022-11-29T04:26:33.545Z,3.46
2022-11-29T04:29:29.944Z,3.52
2022-11-29T04:32:20.439Z,3.57
2022-11-29T04:35:23.417Z,3.74
2022-11-29T04:38:09.770Z,3.69
2022-11-29T04:40:55.619Z,3.65
2022-11-29T04:43:47.303Z,3.58
2022-11-29T04:46:40.865Z,3.51
2022-11-29T04:49:26.069Z,3.46
2022-11-29T04:52:12.000Z,3.63
2022-11-29T04:54:46.162Z,3.64
2022-11-29T04:57:24.431Z,3.83
2022-11-29T05:00:00.306Z,3.83
2022-11-29T05:02:36.922Z,3.69
2022-11-29T05:05:18.538Z,3.63
2022-11-29T05:07:53.685Z,3.71
2022-11-29T05:10:29.168Z,3.66
2022-11-29T05:13:06.243Z,3.56
2022-11-29T05:16:12.519Z,3.60
2022-11-29T05:18:58.136Z,3.54
2022-11-29T05:21:37.280Z,3.64
2022-11-29T05:24:17.556Z,3.57
2022-11-29T05:26:53.142Z,3.52
2022-11-29T05:29:28.634Z,3.58
2022-11-29T05:32:14.231Z,3.71
2022-11-29T05:35:03.119Z,3.68
2022-11-29T05:37:44.208Z,3.85
2022-11-29T05:40:36.345Z,3.88
2022-11-29T05:43:14.978Z,3.98
2022-11-29T05:45:48.181Z,4.01
2022-11-29T05:48:26.684Z,3.95
2022-11-29T05:51:05.500Z,3.91
2022-11-29T05:53:40.929Z,3.95
2022-11-29T05:56:15.916Z,3.98
2022-11-29T05:58:50.428Z,3.88
2022-11-29T06:01:22.981Z,3.92
2022-11-29T06:04:04.434Z,4.07
2022-11-29T06:06:40.386Z,4.13
2022-11-29T06:09:15.649Z,4.13
2022-11-29T06:11:46.163Z,4.10
2022-11-29T06:14:25.215Z,4.14
2022-11-29T06:17:12.097Z,4.13
2022-11-29T06:20:07.446Z,4.15
2022-11-29T06:22:58.150Z,4.26
2022-11-29T06:25:43.554Z,4.28
2022-11-29T06:28:24.690Z,4.38
2022-11-29T06:30:58.010Z,4.45
2022-11-29T06:33:31.752Z,4.39
2022-11-29T06:36:11.991Z,4.35
2022-11-29T06:38:39.689Z,4.34
2022-11-29T06:41:16.423Z,4.37
2022-11-29T06:43:44.352Z,4.30
2022-11-29T06:46:20.940Z,4.37
2022-11-29T06:48:56.571Z,4.42
2022-11-29T06:51:36.321Z,4.30
2022-11-29T06:54:19.534Z,4.37
2022-11-29T06:56:56.276Z,4.49
2022-11-29T06:59:37.421Z,4.54
2022-11-29T07:02:24.346Z,4.50
2022-11-29T07:05:03.452Z,4.44
2022-11-29T07:07:34.253Z,4.55
2022-11-29T07:10:04.322Z,4.51
2022-11-29T07:12:32.988Z,4.58
2022-11-29T07:15:00.970Z,4.54
2022-11-29T07:17:37.440Z,4.52
2022-11-29T07:20:15.920Z,4.54
2022-11-29T07:23:01.109Z,4.56
2022-11-29T07:25:38.571Z,4.51
2022-11-29T07:28:19.337Z,4.53
2022-11-29T07:30:53.593Z,4.75
2022-11-29T07:33:31.876Z,4.75
2022-11-29T07:36:11.747Z,4.59
2022-11-29T07:38:55.999Z,4.64
2022-11-29T07:41:31.086Z,4.63
2022-11-29T07:44:08.008Z,4.60
2022-11-29T07:46:35.450Z,4.64
2022-11-29T07:49:03.141Z,4.61
2022-11-29T07:51:32.110Z,4.69
2022-11-29T07:54:01.425Z,4.74
2022-11-29T07:56:28.930Z,4.80
2022-11-29T07:58:56.699Z,4.69
2022-11-29T08:01:24.267Z,4.81
2022-11-29T08:03:52.105Z,4.90
2022-11-29T08:06:24.833Z,4.79
2022-11-29T08:08:52.766Z,4.80
2022-11-29T08:11:21.390Z,4.81
2022-11-29T08:13:49.501Z,4.69
2022-11-29T08:16:17.376Z,4.74
2022-11-29T08:18:45.395Z,4.80
2022-11-29T08:21:12.627Z,4.84
2022-11-29T08:23:40.688Z,4.86
2022-11-29T08:26:08.024Z,4.89
2022-11-29T08:28:37.198Z,4.99
2022-11-29T08:31:06.737Z,5.05
2022-11-29T08:33:35.740Z,5.04
2022-11-29T08:36:06.427Z,4.99
2022-11-29T08:38:34.513Z,5.07
2022-11-29T08:41:01.930Z,5.15
2022-11-29T08:43:29.965Z,5.11
2022-11-29T08:45:58.849Z,5.03
2022-11-29T08:48:26.922Z,5.02
2022-11-29T08:50:56.083Z,5.11
2022-11-29T08:53:24.797Z,5.09
2022-11-29T08:55:52.378Z,5.04
2022-11-29T08:58:20.255Z,5.02
2022-11-29T09:00:47.580Z,5.03
2022-11-29T09:03:17.022Z,5.15
2022-11-29T09:05:44.517Z,5.12
2022-11-29T09:08:12.570Z,5.27
2022-11-29T09:10:41.103Z,5.18
2022-11-29T09:13:10.006Z,5.13
2022-11-29T09:15:37.635Z,5.32
2022-11-29T09:18:06.016Z,5.33
2022-11-29T09:20:34.854Z,5.27
2022-11-29T09:23:03.015Z,5.22
2022-11-29T09:25:30.495Z,5.19
2022-11-29T09:27:58.798Z,5.35
2022-11-29T09:30:26.178Z,5.14
2022-11-29T09:32:54.003Z,5.22
2022-11-29T09:35:21.447Z,5.23
2022-11-29T09:37:51.496Z,5.35
2022-11-29T09:40:21.913Z,5.24
2022-11-29T09:43:00.606Z,5.26
2022-11-29T09:45:34.485Z,5.39
2022-11-29T09:48:22.309Z,5.44
2022-11-29T09:50:54.126Z,5.44
2022-11-29T09:53:38.534Z,5.46
2022-11-29T09:56:16.645Z,5.51
2022-11-29T09:58:49.642Z,5.57
2022-11-29T10:01:23.190Z,5.42
2022-11-29T10:03:54.318Z,5.37
2022-11-29T10:06:25.459Z,5.60
2022-11-29T10:08:59.508Z,5.64
2022-11-29T10:11:32.025Z,5.57
2022-11-29T10:14:06.151Z,5.65
2022-11-29T10:16:41.930Z,5.72
2022-11-29T10:19:18.929Z,5.80
2022-11-29T10:21:55.226Z,5.95
2022-11-29T10:24:27.073Z,6.10
2022-11-29T10:26:54.414Z,6.17
2022-11-29T10:29:23.527Z,6.10
2022-11-29T10:31:51.073Z,6.13
2022-11-29T10:34:21.615Z,6.00
2022-11-29T10:36:52.110Z,6.13
2022-11-29T10:39:24.618Z,6.11
2022-11-29T10:41:56.488Z,6.07
2022-11-29T10:44:25.406Z,6.12
2022-11-29T10:46:53.625Z,6.04
2022-11-29T10:49:28.081Z,6.08
2022-11-29T10:51:55.446Z,6.27
2022-11-29T10:54:37.805Z,6.22
2022-11-29T10:57:13.097Z,6.21
2022-11-29T10:59:41.557Z,6.31
2022-11-29T11:02:18.226Z,6.08
2022-11-29T11:04:47.803Z,6.09
2022-11-29T11:07:23.914Z,6.04
2022-11-29T11:09:55.581Z,6.04
2022-11-29T11:12:27.298Z,6.02
2022-11-29T11:15:14.837Z,6.05
2022-11-29T11:17:55.719Z,6.20
2022-11-29T11:20:25.267Z,6.36
2022-11-29T11:22:58.396Z,6.25
2022-11-29T11:25:28.990Z,6.25
2022-11-29T11:28:10.621Z,6.18
2022-11-29T11:30:39.053Z,6.12
2022-11-29T11:33:07.929Z,6.32
2022-11-29T11:35:36.217Z,6.41
2022-11-29T11:38:03.601Z,6.43
2022-11-29T11:40:31.824Z,6.30
2022-11-29T11:43:02.214Z,6.38
2022-11-29T11:45:35.167Z,6.40
2022-11-29T11:48:05.481Z,6.56
2022-11-29T11:50:37.639Z,6.61
2022-11-29T11:53:07.920Z,6.49
2022-11-29T11:55:39.646Z,6.41
2022-11-29T11:58:21.962Z,6.48
2022-11-29T12:01:08.651Z,6.67
2022-11-29T12:03:44.155Z,6.86
2022-11-29T12:06:27.152Z,7.02
2022-11-29T12:08:59.353Z,6.81
2022-11-29T12:11:27.423Z,6.86
2022-11-29T12:13:58.676Z,6.79
2022-11-29T12:16:31.727Z,6.80
2022-11-29T12:19:04.374Z,7.13
2022-11-29T12:21:37.561Z,7.23
2022-11-29T12:24:09.324Z,7.09
2022-11-29T12:29:30.136Z,7.35
2022-11-29T12:32:09.292Z,7.31
2022-11-29T12:34:51.286Z,7.22
2022-11-29T12:37:25.360Z,7.13
2022-11-29T12:39:59.965Z,7.20
2022-11-29T12:42:46.810Z,7.25
2022-11-29T12:45:30.084Z,7.46
2022-11-29T12:48:09.787Z,7.52
2022-11-29T12:50:45.617Z,7.56
2022-11-29T12:53:33.657Z,7.73
2022-11-29T12:56:13.902Z,7.63
2022-11-29T12:58:53.772Z,7.69
2022-11-29T13:01:30.760Z,7.50
2022-11-29T13:04:09.788Z,7.53
2022-11-29T13:06:44.803Z,7.61
2022-11-29T13:09:26.808Z,7.61
2022-11-29T13:11:58.470Z,7.84
2022-11-29T13:14:48.241Z,7.91
2022-11-29T13:17:27.974Z,8.07
2022-11-29T13:19:58.324Z,8.18
2022-11-29T13:22:32.469Z,8.36
2022-11-29T13:25:04.357Z,8.23
2022-11-29T13:27:35.483Z,8.43
2022-11-29T13:30:04.634Z,8.35
2022-11-29T13:32:35.399Z,8.48
2022-11-29T13:35:12.674Z,8.38
2022-11-29T13:37:53.514Z,8.39
2022-11-29T13:40:35.087Z,8.31
2022-11-29T13:43:12.180Z,8.39
2022-11-29T13:45:46.645Z,8.49
2022-11-29T13:48:34.251Z,8.56
2022-11-29T13:51:34.076Z,8.63
2022-11-29T13:54:03.410Z,8.58
2022-11-29T13:56:35.638Z,8.56
2022-11-29T13:59:07.982Z,8.65
2022-11-29T14:01:47.221Z,8.66
2022-11-29T14:04:37.735Z,8.65
2022-11-29T14:07:09.934Z,8.61
2022-11-29T14:09:57.082Z,8.61
2022-11-29T14:12:35.586Z,8.63
2022-11-29T14:15:15.489Z,8.66
2022-11-29T14:17:50.786Z,8.67
2022-11-29T14:20:55.808Z,8.78
2022-11-29T14:23:35.416Z,8.71
2022-11-29T14:26:28.768Z,8.68
2022-11-29T14:28:58.285Z,8.60
2022-11-29T14:31:55.020Z,8.56
2022-11-29T14:34:38.379Z,8.54
2022-11-29T14:37:35.653Z,8.51
2022-11-29T14:40:17.008Z,8.54
2022-11-29T14:42:47.449Z,8.56
2022-11-29T14:45:23.747Z,8.45
2022-11-29T14:47:51.895Z,8.40
2022-11-29T14:50:31.261Z,8.42
2022-11-29T14:53:00.095Z,8.44
2022-11-29T14:55:35.331Z,8.52
2022-11-29T14:58:16.783Z,8.21
2022-11-29T15:01:10.727Z,7.81
2022-11-29T15:03:48.540Z,7.48
2022-11-29T15:06:26.130Z,7.39
2022-11-29T15:09:04.480Z,7.46
2022-11-29T15:11:43.317Z,7.56
2022-11-29T15:14:18.969Z,7.55
2022-11-29T15:17:04.731Z,7.45
2022-11-29T15:19:57.681Z,7.10
2022-11-29T15:22:28.149Z,6.62
2022-11-29T15:25:00.548Z,6.50
2022-11-29T15:27:29.329Z,6.67
2022-11-29T15:29:56.712Z,6.48
2022-11-29T15:32:26.203Z,6.41
2022-11-29T15:34:55.268Z,6.62
2022-11-29T15:37:41.249Z,6.66
2022-11-29T15:40:15.018Z,6.58
2022-11-29T15:42:45.184Z,6.38
2022-11-29T15:45:27.339Z,6.38
2022-11-29T15:47:55.909Z,6.36
2022-11-29T15:50:25.721Z,6.40
2022-11-29T15:53:06.053Z,6.49
2022-11-29T15:55:35.407Z,6.63
2022-11-29T15:58:08.707Z,6.68
2022-11-29T16:00:36.848Z,6.76
2022-11-29T16:03:06.448Z,6.71
2022-11-29T16:05:37.002Z,6.61
2022-11-29T16:08:12.335Z,6.50
2022-11-29T16:10:44.140Z,6.48
2022-11-29T16:13:32.199Z,6.38
2022-11-29T16:16:06.083Z,6.31
2022-11-29T16:18:34.195Z,6.36
2022-11-29T16:21:03.527Z,6.36
2022-11-29T16:23:36.453Z,6.18
2022-11-29T16:26:15.087Z,5.96
2022-11-29T16:28:45.488Z,5.90
2022-11-29T16:31:18.078Z,5.91
2022-11-29T16:33:47.252Z,5.94
2022-11-29T16:36:17.855Z,6.06
2022-11-29T16:38:47.087Z,6.05
2022-11-29T16:41:25.145Z,6.02
2022-11-29T16:43:54.599Z,6.07
2022-11-29T16:46:34.431Z,6.10
2022-11-29T16:49:24.671Z,6.10
2022-11-29T16:51:53.992Z,6.07
2022-11-29T16:54:23.969Z,6.11
2022-11-29T16:56:54.424Z,6.22
2022-11-29T16:59:27.519Z,6.28
2022-11-29T17:01:56.243Z,6.49
2022-11-29T17:04:24.868Z,6.46
2022-11-29T17:06:53.910Z,6.44
2022-11-29T17:09:26.789Z,6.13
2022-11-29T17:11:56.786Z,6.08
2022-11-29T17:14:24.606Z,6.02
2022-11-29T17:16:52.106Z,6.07
2022-11-29T17:19:23.514Z,6.07
2022-11-29T17:21:51.665Z,5.90
2022-11-29T17:24:20.750Z,5.77
2022-11-29T17:26:48.123Z,5.67
2022-11-29T17:29:18.349Z,5.68
2022-11-29T17:31:46.879Z,5.63
2022-11-29T17:34:14.723Z,5.66
2022-11-29T17:36:42.605Z,5.63
2022-11-29T17:39:10.440Z,5.62
2022-11-29T17:41:37.899Z,5.68
2022-11-29T17:44:06.167Z,5.62
2022-11-29T17:46:37.136Z,5.63
2022-11-29T17:49:06.758Z,5.61
2022-11-29T17:51:52.738Z,5.71
2022-11-29T17:54:22.042Z,5.64
2022-11-29T17:56:49.753Z,5.55
2022-11-29T17:59:18.111Z,5.42
2022-11-29T18:01:47.472Z,5.36
2022-11-29T18:04:15.584Z,5.40
2022-11-29T18:06:43.074Z,5.56
2022-11-29T18:09:11.514Z,5.62
2022-11-29T18:11:48.013Z,5.31
2022-11-29T18:14:18.839Z,5.32
2022-11-29T18:16:48.048Z,5.31
2022-11-29T18:19:18.186Z,5.22
2022-11-29T18:21:45.726Z,5.22
2022-11-29T18:24:13.932Z,5.29
2022-11-29T18:26:41.720Z,5.17
2022-11-29T18:29:10.161Z,5.20
2022-11-29T18:31:39.672Z,5.07
2022-11-29T18:34:10.512Z,5.08
2022-11-29T18:36:40.155Z,4.98
2022-11-29T18:39:10.318Z,4.89
2022-11-29T18:41:38.250Z,4.93
2022-11-29T18:44:09.255Z,4.87
2022-11-29T18:46:38.410Z,5.01
2022-11-29T18:49:09.335Z,4.89
2022-11-29T18:51:38.099Z,4.93
2022-11-29T18:54:06.620Z,5.01
2022-11-29T18:56:36.374Z,4.97
2022-11-29T18:59:07.205Z,4.89
2022-11-29T19:01:35.645Z,4.99
2022-11-29T19:04:03.845Z,5.08
2022-11-29T19:06:39.331Z,4.99
2022-11-29T19:09:12.064Z,4.98
2022-11-29T19:11:39.841Z,4.92
2022-11-29T19:14:09.854Z,5.02
2022-11-29T19:16:38.225Z,5.10
2022-11-29T19:19:06.218Z,5.10
2022-11-29T19:21:35.434Z,5.10
2022-11-29T19:24:05.060Z,5.13
2022-11-29T19:26:33.075Z,5.21
2022-11-29T19:29:01.771Z,5.32
2022-11-29T19:31:29.524Z,5.29
2022-11-29T19:33:58.001Z,5.10
2022-11-29T19:36:27.240Z,4.99
2022-11-29T19:38:57.458Z,5.01
2022-11-29T19:41:27.421Z,5.03
2022-11-29T19:43:56.760Z,4.90
2022-11-29T19:46:26.123Z,4.94
2022-11-29T19:48:55.343Z,4.73
2022-11-29T19:51:23.948Z,4.63
2022-11-29T19:53:57.990Z,4.50
2022-11-29T19:56:25.615Z,4.38
2022-11-29T19:58:53.810Z,4.36
2022-11-29T20:01:22.950Z,4.28
2022-11-29T20:03:52.174Z,4.17
2022-11-29T20:06:19.774Z,4.19
2022-11-29T20:08:48.196Z,4.30
2022-11-29T20:11:19.775Z,4.39
2022-11-29T20:13:54.793Z,4.35
2022-11-29T20:16:22.469Z,4.28
2022-11-29T20:18:51.662Z,4.09
2022-11-29T20:21:20.901Z,3.98
2022-11-29T20:23:49.828Z,3.93
2022-11-29T20:26:20.249Z,3.98
2022-11-29T20:28:49.326Z,4.01
2022-11-29T20:31:19.249Z,4.13
2022-11-29T20:33:47.612Z,4.02
2022-11-29T20:36:31.858Z,4.11
2022-11-29T20:39:11.730Z,4.04
2022-11-29T20:41:48.617Z,3.76
2022-11-29T20:44:20.562Z,3.55
2022-11-29T20:46:48.261Z,3.49
2022-11-29T20:49:16.693Z,3.38
2022-11-29T20:51:51.651Z,3.34
2022-11-29T20:54:20.374Z,3.29
2022-11-29T20:56:49.288Z,3.34
2022-11-29T20:59:17.462Z,3.22
2022-11-29T21:01:45.252Z,3.15
2022-11-29T21:04:13.391Z,3.23
2022-11-29T21:06:40.927Z,3.16
2022-11-29T21:09:08.655Z,2.93
2022-11-29T21:11:36.581Z,2.76
2022-11-29T21:14:08.396Z,2.81
2022-11-29T21:16:36.192Z,2.71
2022-11-29T21:19:04.900Z,2.63
2022-11-29T21:21:40.778Z,2.60
2022-11-29T21:24:16.845Z,2.43
2022-11-29T21:26:50.915Z,2.46
2022-11-29T21:29:22.078Z,2.40
2022-11-29T21:31:51.917Z,2.40
2022-11-29T21:34:20.626Z,2.39
2022-11-29T21:36:53.300Z,2.35
2022-11-29T21:39:21.294Z,2.19
2022-11-29T21:41:48.882Z,2.14
2022-11-29T21:44:17.083Z,2.10
2022-11-29T21:46:45.876Z,1.97
2022-11-29T21:49:13.767Z,1.72
2022-11-29T21:51:41.211Z,1.71
2022-11-29T21:54:09.474Z,1.83
2022-11-29T21:56:37.090Z,1.90
2022-11-29T21:59:05.974Z,1.87
2022-11-29T22:01:33.653Z,1.80
2022-11-29T22:04:03.750Z,1.87
2022-11-29T22:06:31.837Z,1.83
2022-11-29T22:09:00.280Z,1.76
2022-11-29T22:11:27.794Z,1.68
2022-11-29T22:13:56.769Z,1.58
2022-11-29T22:16:25.078Z,1.50
2022-11-29T22:18:53.409Z,1.58
2022-11-29T22:21:22.663Z,1.63
2022-11-29T22:23:52.291Z,1.57
2022-11-29T22:26:19.929Z,1.57
2022-11-29T22:28:47.872Z,1.61
2022-11-29T22:31:15.413Z,1.66
2022-11-29T22:33:43.564Z,1.62
2022-11-29T22:36:13.290Z,1.60
2022-11-29T22:38:42.457Z,1.51
2022-11-29T22:41:11.506Z,1.44
2022-11-29T22:43:41.338Z,1.49
2022-11-29T22:46:11.403Z,1.48
2022-11-29T22:48:40.714Z,1.52
2022-11-29T22:51:09.887Z,1.57
2022-11-29T22:53:39.455Z,1.63
2022-11-29T22:56:11.354Z,1.54
2022-11-29T22:58:39.353Z,1.53
2022-11-29T23:01:09.174Z,1.51
2022-11-29T23:03:39.048Z,1.54
2022-11-29T23:06:08.240Z,1.57
2022-11-29T23:08:36.936Z,1.48
2022-11-29T23:11:06.328Z,1.48
2022-11-29T23:13:37.324Z,1.57
2022-11-29T23:16:07.194Z,1.53
2022-11-29T23:18:36.355Z,1.44
2022-11-29T23:21:05.796Z,1.42
2022-11-29T23:23:34.319Z,1.45
2022-11-29T23:26:02.558Z,1.52
2022-11-29T23:28:30.796Z,1.49
2022-11-29T23:31:00.601Z,1.52
2022-11-29T23:33:28.834Z,1.50
2022-11-29T23:36:00.212Z,1.43
2022-11-29T23:38:27.956Z,1.51
2022-11-29T23:40:55.378Z,1.50
2022-11-29T23:43:23.989Z,1.42
2022-11-29T23:45:51.466Z,1.26
2022-11-29T23:48:20.693Z,1.21
2022-11-29T23:50:47.971Z,1.10
2022-11-29T23:53:18.508Z,0.95
2022-11-29T23:55:46.003Z,0.90
2022-11-29T23:58:13.715Z,0.76
